TimePST,TemperatureF,Dew PointF,Humidity,Sea Level PressureIn,VisibilityMPH,Wind Direction,Wind SpeedMPH,Gust SpeedMPH,PrecipitationIn,Events,Conditions,WindDirDegrees,DateUTC
12:27 AM,33.8,33.8,100,30.18,7.0,Calm,Calm,-,N/A,,Mostly Cloudy,0,2013-02-01 08:27:00
12:53 AM,33.1,33.1,100,30.23,4.0,SSW,3.5,-,N/A,,Overcast,210,2013-02-01 08:53:00
1:53 AM,34.0,33.1,96,30.25,5.0,South,4.6,-,N/A,,Overcast,190,2013-02-01 09:53:00
2:30 AM,33.8,33.8,100,30.21,4.0,SSW,3.5,-,N/A,,Overcast,210,2013-02-01 10:30:00
2:53 AM,33.1,33.1,100,30.27,3.0,Calm,Calm,-,N/A,,Overcast,0,2013-02-01 10:53:00
3:04 AM,33.8,33.8,100,30.21,2.0,WSW,3.5,-,N/A,,Overcast,250,2013-02-01 11:04:00
3:13 AM,33.8,33.8,100,30.21,1.8,WSW,4.6,-,N/A,,Overcast,250,2013-02-01 11:13:00
3:20 AM,33.8,33.8,100,30.22,3.0,SW,3.5,-,N/A,,Overcast,220,2013-02-01 11:20:00
3:30 AM,33.8,33.8,100,30.21,1.8,SW,5.8,-,N/A,,Overcast,220,2013-02-01 11:30:00
3:53 AM,33.1,33.1,100,30.29,2.0,WSW,3.5,-,N/A,,Overcast,250,2013-02-01 11:53:00
4:10 AM,33.8,33.8,100,30.23,1.5,SW,3.5,-,N/A,,Overcast,220,2013-02-01 12:10:00
4:20 AM,33.8,33.8,100,30.23,3.0,West,3.5,-,N/A,,Overcast,270,2013-02-01 12:20:00
4:35 AM,33.8,33.8,100,30.23,1.8,SSE,3.5,-,N/A,,Overcast,160,2013-02-01 12:35:00
4:45 AM,33.8,33.8,100,30.23,0.5,Calm,Calm,-,N/A,Fog,Fog,0,2013-02-01 12:45:00
4:53 AM,33.1,33.1,100,30.30,0.5,SSE,4.6,-,N/A,Fog,Fog,150,2013-02-01 12:53:00
5:34 AM,33.8,33.8,100,30.24,1.8,Calm,Calm,-,N/A,,Overcast,0,2013-02-01 13:34:00
5:41 AM,33.8,33.8,100,30.24,2.5,Calm,Calm,-,N/A,,Overcast,0,2013-02-01 13:41:00
5:53 AM,33.1,33.1,100,30.30,1.0,Calm,Calm,-,N/A,,Overcast,0,2013-02-01 13:53:00
6:01 AM,33.8,33.8,100,30.25,0.5,South,3.5,-,N/A,Fog,Fog,170,2013-02-01 14:01:00
7:53 AM,32.0,32.0,100,30.35,0.8,Calm,Calm,-,N/A,,Overcast,0,2013-02-01 15:53:00
8:45 AM,32.0,32.0,100,30.31,1.0,SSE,3.5,-,N/A,,Overcast,160,2013-02-01 16:45:00
8:53 AM,32.0,30.9,96,30.38,0.8,SSE,3.5,-,N/A,,Overcast,150,2013-02-01 16:53:00
9:28 AM,32.0,32.0,100,30.31,2.0,South,3.5,-,N/A,,Overcast,190,2013-02-01 17:28:00
9:36 AM,32.0,32.0,100,30.32,5.0,SSW,3.5,-,N/A,,Overcast,210,2013-02-01 17:36:00
9:53 AM,32.0,30.9,96,30.38,7.0,SW,3.5,-,N/A,,Overcast,220,2013-02-01 17:53:00
10:53 AM,32.0,32.0,100,30.40,5.0,South,6.9,-,N/A,,Overcast,190,2013-02-01 18:53:00
11:53 AM,32.0,32.0,100,30.42,6.0,SSW,3.5,-,N/A,,Overcast,210,2013-02-01 19:53:00
1:14 PM,33.8,32.0,93,30.35,10.0,SSW,5.8,-,N/A,,Overcast,200,2013-02-01 21:14:00
1:53 PM,34.0,32.0,92,30.42,10.0,SW,5.8,-,N/A,,Overcast,220,2013-02-01 21:53:00
2:02 PM,33.8,32.0,93,30.36,10.0,SSW,4.6,-,N/A,,Overcast,210,2013-02-01 22:02:00
2:53 PM,34.0,32.0,92,30.43,10.0,Calm,Calm,-,N/A,,Overcast,0,2013-02-01 22:53:00
3:53 PM,34.0,30.9,89,30.43,10.0,WNW,3.5,-,N/A,,Overcast,290,2013-02-01 23:53:00
4:26 PM,33.8,30.2,87,30.38,10.0,WNW,3.5,-,N/A,,Scattered Clouds,300,2013-02-02 00:26:00
4:53 PM,32.0,30.9,96,30.45,8.0,West,3.5,-,N/A,,Clear,270,2013-02-02 00:53:00
5:53 PM,28.9,28.0,96,30.45,4.0,Calm,Calm,-,N/A,,Clear,0,2013-02-02 01:53:00
6:10 PM,28.4,26.6,93,30.38,3.0,Calm,Calm,-,N/A,,Partly Cloudy,0,2013-02-02 02:10:00
6:17 PM,28.4,26.6,93,30.38,2.5,ENE,3.5,-,N/A,,Partly Cloudy,60,2013-02-02 02:17:00
6:26 PM,28.4,26.6,93,30.39,4.0,Calm,Calm,-,N/A,,Partly Cloudy,0,2013-02-02 02:26:00
6:44 PM,26.6,26.6,100,30.39,2.5,Calm,Calm,-,N/A,,Partly Cloudy,0,2013-02-02 02:44:00
6:53 PM,27.0,26.1,96,30.47,5.0,Calm,Calm,-,N/A,,Partly Cloudy,0,2013-02-02 02:53:00
7:28 PM,26.6,24.8,93,30.39,1.8,North,3.5,-,N/A,,Scattered Clouds,350,2013-02-02 03:28:00
7:31 PM,26.6,24.8,93,30.39,0.8,North,4.6,-,N/A,,Mist,350,2013-02-02 03:31:00
7:53 PM,28.9,28.0,96,30.47,0.2,Calm,Calm,-,N/A,Fog,Light Freezing Fog,0,2013-02-02 03:53:00
8:41 PM,30.2,30.2,100,30.41,1.2,NW,3.5,-,N/A,,Overcast,310,2013-02-02 04:41:00
8:53 PM,30.0,30.0,100,30.48,1.2,Calm,Calm,-,N/A,,Overcast,0,2013-02-02 04:53:00
9:07 PM,30.2,30.2,100,30.42,0.8,Calm,Calm,-,N/A,,Mist,0,2013-02-02 05:07:00
9:53 PM,30.0,30.0,100,30.50,0.5,NW,3.5,-,N/A,Fog,Light Freezing Fog,320,2013-02-02 05:53:00
10:53 PM,30.9,30.9,100,30.50,0.2,Calm,Calm,-,N/A,Fog,Light Freezing Fog,0,2013-02-02 06:53:00
11:53 PM,30.9,30.0,96,30.51,0.2,WNW,3.5,-,N/A,Fog,Light Freezing Fog,300,2013-02-02 07:53:00